createdAt,value
2019-04-14T00:07:44.928Z,2.84
2019-04-14T00:10:11.965Z,2.91
2019-04-14T00:12:40.829Z,2.91
2019-04-14T00:15:23.324Z,2.94
2019-04-14T00:17:36.942Z,2.91
2019-04-14T00:20:05.970Z,2.89
2019-04-14T00:22:32.187Z,2.88
2019-04-14T00:24:58.269Z,2.84
2019-04-14T00:27:24.103Z,2.88
2019-04-14T00:29:50.337Z,2.90
2019-04-14T00:32:16.345Z,2.96
2019-04-14T00:34:46.995Z,2.98
2019-04-14T00:37:31.598Z,2.87
2019-04-14T00:39:59.765Z,2.91
2019-04-14T00:42:34.193Z,2.96
2019-04-14T00:45:02.815Z,2.99
2019-04-14T00:47:31.186Z,2.96
2019-04-14T00:49:57.369Z,2.95
2019-04-14T00:52:23.450Z,2.96
2019-04-14T00:54:50.048Z,2.97
2019-04-14T00:57:16.071Z,3.04
2019-04-14T00:59:41.940Z,2.99
2019-04-14T01:02:08.065Z,2.99
2019-04-14T01:04:33.854Z,2.99
2019-04-14T01:07:00.144Z,2.99
2019-04-14T01:09:26.164Z,3.01
2019-04-14T01:11:53.081Z,2.99
2019-04-14T01:14:19.105Z,3.01
2019-04-14T01:16:45.205Z,3.02
2019-04-14T01:19:11.313Z,3.01
2019-04-14T01:21:37.132Z,2.98
2019-04-14T01:24:03.237Z,3.04
2019-04-14T01:26:29.096Z,3.03
2019-04-14T01:28:54.889Z,3.03
2019-04-14T01:31:20.684Z,3.08
2019-04-14T01:33:47.000Z,3.06
2019-04-14T01:36:13.003Z,3.09
2019-04-14T01:38:38.783Z,3.06
2019-04-14T01:41:06.442Z,3.03
2019-04-14T01:43:32.401Z,3.05
2019-04-14T01:46:08.014Z,3.04
2019-04-14T01:48:25.924Z,3.05
2019-04-14T01:51:11.313Z,3.02
2019-04-14T01:53:42.240Z,3.04
2019-04-14T01:56:12.767Z,3.06
2019-04-14T01:58:40.524Z,3.01
2019-04-14T02:01:08.480Z,3.04
2019-04-14T02:03:37.309Z,3.06
2019-04-14T02:06:04.550Z,3.10
2019-04-14T02:08:30.881Z,1.43
2019-04-14T02:10:56.708Z,3.12
2019-04-14T02:13:22.593Z,3.06
2019-04-14T02:15:48.598Z,3.11
2019-04-14T02:18:14.432Z,3.09
2019-04-14T02:20:40.388Z,3.09
2019-04-14T02:23:06.245Z,3.05
2019-04-14T02:25:32.042Z,3.05
2019-04-14T02:27:58.231Z,3.01
2019-04-14T02:30:30.763Z,3.02
2019-04-14T02:35:59.695Z,2.97
2019-04-14T02:38:23.196Z,2.92
2019-04-14T02:43:13.699Z,2.93
2019-04-14T02:50:32.507Z,2.83
2019-04-14T02:53:01.554Z,2.82
2019-04-14T02:55:21.237Z,2.79
2019-04-14T02:57:52.140Z,2.75
2019-04-14T03:00:24.027Z,2.67
2019-04-14T03:02:53.472Z,2.60
2019-04-14T03:05:21.837Z,2.48
2019-04-14T03:07:51.559Z,2.37
2019-04-14T03:10:18.569Z,2.29
2019-04-14T03:12:54.599Z,2.30
2019-04-14T03:15:22.177Z,2.25
2019-04-14T03:22:51.752Z,2.23
2019-04-14T03:28:17.648Z,2.15
2019-04-14T03:31:17.778Z,2.10
2019-04-14T03:36:30.362Z,2.06
2019-04-14T03:38:55.002Z,2.07
2019-04-14T03:41:13.748Z,1.99
2019-04-14T03:43:38.836Z,1.91
2019-04-14T03:49:17.835Z,1.83
2019-04-14T03:51:40.522Z,1.82
2019-04-14T03:54:09.686Z,1.79
2019-04-14T03:56:49.310Z,1.72
2019-04-14T03:59:23.843Z,1.70
2019-04-14T04:02:11.758Z,1.69
2019-04-14T04:07:34.365Z,1.74
2019-04-14T04:10:14.003Z,1.78
2019-04-14T04:12:44.282Z,1.82
2019-04-14T04:15:10.529Z,1.82
2019-04-14T04:17:38.749Z,1.83
2019-04-14T04:20:10.926Z,1.88
2019-04-14T04:22:39.012Z,1.95
2019-04-14T04:25:16.163Z,1.88
2019-04-14T04:27:59.067Z,2.01
2019-04-14T04:30:27.624Z,2.06
2019-04-14T04:33:04.517Z,2.09
2019-04-14T04:35:34.999Z,2.12
2019-04-14T04:38:03.028Z,2.15
2019-04-14T04:40:31.201Z,2.22
2019-04-14T04:42:57.194Z,2.25
2019-04-14T04:45:23.516Z,2.26
2019-04-14T04:47:49.367Z,2.36
2019-04-14T04:50:15.155Z,2.36
2019-04-14T04:52:40.933Z,2.39
2019-04-14T04:55:06.851Z,2.44
2019-04-14T04:57:32.842Z,2.45
2019-04-14T04:59:58.616Z,2.49
2019-04-14T05:02:24.500Z,2.49
2019-04-14T05:04:50.632Z,2.61
2019-04-14T05:07:16.730Z,2.61
2019-04-14T05:09:57.717Z,2.70
2019-04-14T05:12:28.384Z,2.70
2019-04-14T05:15:03.542Z,2.75
2019-04-14T05:17:43.684Z,2.82
2019-04-14T05:20:09.645Z,2.81
2019-04-14T05:22:35.480Z,2.83
2019-04-14T05:25:01.500Z,2.89
2019-04-14T05:27:27.652Z,2.94
2019-04-14T05:29:53.678Z,2.98
2019-04-14T05:32:19.508Z,3.00
2019-04-14T05:34:45.447Z,3.09
2019-04-14T05:37:11.730Z,3.15
2019-04-14T05:39:37.577Z,3.21
2019-04-14T05:42:10.725Z,3.25
2019-04-14T05:44:31.848Z,3.31
2019-04-14T05:46:57.940Z,3.31
2019-04-14T05:49:31.527Z,3.36
2019-04-14T05:51:52.417Z,3.37
2019-04-14T05:54:18.572Z,3.38
2019-04-14T05:56:44.728Z,3.42
2019-04-14T05:59:11.364Z,3.46
2019-04-14T06:01:37.278Z,3.48
2019-04-14T06:04:03.159Z,3.55
2019-04-14T06:06:28.964Z,3.57
2019-04-14T06:08:54.736Z,3.64
2019-04-14T06:11:20.526Z,3.73
2019-04-14T06:13:46.303Z,3.80
2019-04-14T06:16:12.091Z,3.90
2019-04-14T06:18:37.871Z,3.94
2019-04-14T06:21:03.676Z,4.06
2019-04-14T06:23:29.457Z,4.06
2019-04-14T06:25:55.233Z,4.06
2019-04-14T06:28:21.039Z,2.19
2019-04-14T06:31:05.312Z,4.23
2019-04-14T06:33:33.011Z,4.37
2019-04-14T06:36:09.559Z,4.56
2019-04-14T06:38:37.258Z,4.67
2019-04-14T06:41:04.940Z,4.68
2019-04-14T06:43:30.743Z,4.93
2019-04-14T06:45:56.523Z,4.98
2019-04-14T06:48:22.312Z,5.03
2019-04-14T06:50:48.087Z,5.21
2019-04-14T06:53:13.902Z,5.33
2019-04-14T06:55:39.651Z,5.40
2019-04-14T06:58:05.444Z,5.39
2019-04-14T07:00:31.226Z,5.43
2019-04-14T07:02:57.127Z,5.38
2019-04-14T07:05:22.910Z,5.46
2019-04-14T07:07:57.048Z,5.45
2019-04-14T07:10:16.395Z,5.54
2019-04-14T07:12:43.181Z,5.48
2019-04-14T07:15:09.478Z,5.12
2019-04-14T07:17:35.276Z,5.12
2019-04-14T07:20:02.597Z,5.06
2019-04-14T07:22:28.573Z,5.21
2019-04-14T07:24:54.350Z,5.26
2019-04-14T07:27:20.134Z,5.28
2019-04-14T07:30:00.771Z,5.33
2019-04-14T07:32:31.080Z,5.31
2019-04-14T07:35:15.210Z,5.49
2019-04-14T07:37:48.815Z,5.62
2019-04-14T07:40:25.411Z,5.61
2019-04-14T07:42:53.125Z,5.72
2019-04-14T07:45:20.811Z,5.88
2019-04-14T07:47:54.350Z,6.13
2019-04-14T07:50:22.037Z,5.92
2019-04-14T07:53:07.944Z,5.99
2019-04-14T07:55:41.717Z,6.11
2019-04-14T07:58:09.414Z,6.02
2019-04-14T08:00:37.108Z,5.96
2019-04-14T08:03:13.871Z,5.97
2019-04-14T08:05:41.157Z,6.01
2019-04-14T08:08:07.034Z,6.02
2019-04-14T08:10:32.824Z,6.15
2019-04-14T08:12:58.605Z,6.22
2019-04-14T08:15:24.394Z,6.37
2019-04-14T08:17:50.219Z,6.70
2019-04-14T08:20:26.737Z,6.70
2019-04-14T08:22:43.691Z,7.04
2019-04-14T08:25:09.455Z,7.32
2019-04-14T08:27:35.245Z,7.32
2019-04-14T08:30:01.048Z,7.48
2019-04-14T08:32:26.824Z,7.35
2019-04-14T08:34:52.629Z,7.16
2019-04-14T08:37:18.407Z,7.05
2019-04-14T08:39:44.198Z,7.20
2019-04-14T08:42:11.889Z,7.04
2019-04-14T08:44:39.687Z,7.09
2019-04-14T08:47:07.379Z,6.82
2019-04-14T08:49:43.940Z,6.74
2019-04-14T08:52:26.435Z,6.74
2019-04-14T08:55:02.923Z,6.78
2019-04-14T08:57:30.602Z,6.87
2019-04-14T09:00:10.222Z,6.79
2019-04-14T09:02:55.766Z,6.68
2019-04-14T09:05:40.277Z,6.86
2019-04-14T09:08:10.776Z,6.97
2019-04-14T09:10:56.349Z,6.99
2019-04-14T09:13:22.146Z,7.20
2019-04-14T09:15:47.941Z,7.20
2019-04-14T09:18:13.727Z,7.33
2019-04-14T09:20:51.372Z,7.47
2019-04-14T09:23:07.206Z,7.64
2019-04-14T09:25:33.201Z,7.64
2019-04-14T09:27:58.994Z,7.39
2019-04-14T09:30:25.598Z,6.78
2019-04-14T09:32:55.033Z,6.78
2019-04-14T09:44:47.508Z,7.06
2019-04-14T09:51:16.369Z,6.71
2019-04-14T09:54:07.516Z,6.73
2019-04-14T09:57:04.178Z,6.49
2019-04-14T09:59:46.065Z,6.59
2019-04-14T10:02:21.215Z,6.63
2019-04-14T10:04:59.000Z,6.32
2019-04-14T10:07:30.851Z,5.97
2019-04-14T10:09:56.810Z,5.90
2019-04-14T10:12:22.619Z,5.83
2019-04-14T10:14:58.507Z,5.93
2019-04-14T10:17:32.181Z,5.80
2019-04-14T10:20:17.608Z,5.74
2019-04-14T10:22:43.417Z,5.82
2019-04-14T10:25:09.432Z,5.88
2019-04-14T10:28:21.922Z,5.78
2019-04-14T10:30:08.644Z,5.65
2019-04-14T10:32:34.440Z,5.62
2019-04-14T10:35:00.228Z,5.74
2019-04-14T10:37:26.019Z,5.73
2019-04-14T10:39:51.809Z,5.73
2019-04-14T10:42:17.616Z,5.65
2019-04-14T10:44:43.396Z,5.68
2019-04-14T10:47:10.345Z,5.67
2019-04-14T10:49:36.125Z,5.69
2019-04-14T10:52:01.929Z,5.79
2019-04-14T10:54:27.701Z,5.68
2019-04-14T10:56:53.487Z,5.72
2019-04-14T10:59:19.283Z,5.82
2019-04-14T11:01:45.060Z,5.74
2019-04-14T11:04:10.890Z,5.76
2019-04-14T11:06:38.606Z,5.84
2019-04-14T11:09:06.221Z,5.91
2019-04-14T11:11:32.021Z,5.99
2019-04-14T11:13:57.833Z,6.06
2019-04-14T11:16:23.612Z,5.96
2019-04-14T11:18:49.434Z,5.97
2019-04-14T11:21:15.280Z,5.93
2019-04-14T11:23:41.085Z,5.87
2019-04-14T11:26:06.937Z,5.88
2019-04-14T11:28:32.746Z,5.87
2019-04-14T11:30:58.526Z,5.97
2019-04-14T11:33:42.585Z,6.04
2019-04-14T11:36:10.351Z,6.09
2019-04-14T11:38:40.606Z,6.18
2019-04-14T11:41:08.316Z,6.17
2019-04-14T11:43:34.135Z,6.20
2019-04-14T11:46:03.194Z,6.11
2019-04-14T11:48:28.047Z,6.11
2019-04-14T11:50:53.890Z,6.29
2019-04-14T11:53:19.728Z,6.23
2019-04-14T11:55:45.519Z,6.23
2019-04-14T11:58:11.295Z,6.11
2019-04-14T12:00:55.969Z,6.13
2019-04-14T12:03:23.660Z,6.08
2019-04-14T12:05:57.407Z,6.18
2019-04-14T12:08:34.146Z,6.36
2019-04-14T12:11:00.365Z,6.49
2019-04-14T12:13:26.152Z,6.51
2019-04-14T12:15:51.994Z,6.42
2019-04-14T12:18:17.796Z,6.50
2019-04-14T12:20:43.618Z,6.49
2019-04-14T12:23:09.428Z,6.59
2019-04-14T12:25:35.259Z,6.45
2019-04-14T12:28:01.059Z,6.49
2019-04-14T12:30:26.958Z,6.56
2019-04-14T12:32:52.742Z,6.57
2019-04-14T12:35:18.760Z,6.56
2019-04-14T12:37:44.558Z,6.56
2019-04-14T12:40:10.547Z,6.63
2019-04-14T12:42:38.353Z,6.88
2019-04-14T12:45:12.819Z,6.88
2019-04-14T12:47:43.029Z,6.82
2019-04-14T12:50:13.505Z,6.78
2019-04-14T12:52:39.303Z,6.72
2019-04-14T12:55:05.994Z,6.63
2019-04-14T12:57:33.687Z,6.75
2019-04-14T12:59:59.470Z,6.58
2019-04-14T13:02:27.187Z,6.55
2019-04-14T13:04:55.272Z,6.57
2019-04-14T13:07:22.587Z,6.54
2019-04-14T13:09:48.558Z,6.63
2019-04-14T13:12:14.985Z,6.69
2019-04-14T13:14:42.095Z,6.77
2019-04-14T13:17:10.179Z,6.83
2019-04-14T13:19:36.060Z,7.02
2019-04-14T13:22:01.893Z,7.13
2019-04-14T13:24:27.793Z,7.09
2019-04-14T13:26:53.602Z,7.11
2019-04-14T13:29:19.459Z,7.33
2019-04-14T13:31:46.098Z,7.35
2019-04-14T13:34:11.927Z,7.69
2019-04-14T13:36:37.751Z,8.22
2019-04-14T13:39:05.341Z,8.45
2019-04-14T13:41:31.149Z,8.62
2019-04-14T13:43:56.938Z,8.34
2019-04-14T13:46:22.765Z,8.33
2019-04-14T13:48:48.542Z,8.20
2019-04-14T13:51:14.347Z,7.92
2019-04-14T13:53:40.229Z,7.75
2019-04-14T13:56:06.055Z,7.74
2019-04-14T13:58:31.863Z,7.78
2019-04-14T14:00:57.647Z,7.73
2019-04-14T14:03:23.431Z,7.64
2019-04-14T14:05:49.208Z,7.68
2019-04-14T14:08:15.006Z,7.75
2019-04-14T14:10:40.796Z,7.58
2019-04-14T14:13:14.728Z,7.58
2019-04-14T14:15:58.812Z,7.55
2019-04-14T14:18:44.664Z,7.61
2019-04-14T14:21:12.356Z,7.66
2019-04-14T14:23:45.910Z,7.63
2019-04-14T14:26:13.601Z,7.66
2019-04-14T14:28:42.313Z,7.62
2019-04-14T14:31:08.102Z,7.72
2019-04-14T14:33:33.904Z,7.31
2019-04-14T14:35:59.697Z,7.88
2019-04-14T14:38:25.604Z,7.76
2019-04-14T14:40:51.985Z,7.86
2019-04-14T14:43:17.785Z,7.92
2019-04-14T14:45:45.504Z,8.05
2019-04-14T14:48:13.210Z,8.34
2019-04-14T14:50:41.350Z,8.36
2019-04-14T14:53:12.259Z,8.38
2019-04-14T14:55:36.679Z,8.49
2019-04-14T14:58:02.572Z,8.49
2019-04-14T15:00:30.252Z,8.26
2019-04-14T15:02:56.054Z,8.28
2019-04-14T15:05:21.843Z,8.31
2019-04-14T15:07:47.643Z,8.26
2019-04-14T15:10:13.690Z,8.24
2019-04-14T15:12:39.567Z,8.18
2019-04-14T15:15:05.563Z,8.14
2019-04-14T15:17:31.392Z,8.06
2019-04-14T15:19:57.190Z,8.08
2019-04-14T15:22:22.972Z,8.11
2019-04-14T15:24:48.767Z,8.20
2019-04-14T15:27:14.666Z,8.17
2019-04-14T15:29:40.469Z,7.94
2019-04-14T15:32:06.250Z,8.00
2019-04-14T15:34:32.078Z,8.05
2019-04-14T15:36:57.863Z,8.11
2019-04-14T15:39:23.680Z,7.95
2019-04-14T15:41:49.447Z,8.04
2019-04-14T15:44:15.249Z,7.96
2019-04-14T15:46:41.032Z,8.11
2019-04-14T15:49:06.833Z,8.08
2019-04-14T15:51:32.609Z,8.14
2019-04-14T15:53:58.421Z,8.26
2019-04-14T15:56:34.671Z,8.15
2019-04-14T15:59:11.245Z,8.21
2019-04-14T16:01:53.720Z,8.32
2019-04-14T16:04:24.077Z,8.24
2019-04-14T16:06:51.779Z,7.95
2019-04-14T16:09:31.313Z,7.88
2019-04-14T16:11:59.009Z,7.69
2019-04-14T16:14:35.703Z,7.70
2019-04-14T16:17:10.077Z,7.70
2019-04-14T16:19:43.700Z,7.70
2019-04-14T16:22:09.487Z,7.71
2019-04-14T16:24:35.283Z,7.71
2019-04-14T16:27:19.539Z,7.69
2019-04-14T16:29:47.240Z,7.64
2019-04-14T16:32:27.082Z,7.61
2019-04-14T16:34:54.784Z,7.64
2019-04-14T16:37:20.587Z,7.66
2019-04-14T16:39:46.391Z,7.62
2019-04-14T16:42:12.183Z,7.56
2019-04-14T16:44:37.964Z,7.48
2019-04-14T16:47:04.356Z,7.43
2019-04-14T16:49:30.148Z,7.32
2019-04-14T16:52:03.544Z,7.29
2019-04-14T16:54:49.425Z,7.29
2019-04-14T16:57:29.405Z,7.17
2019-04-14T16:59:55.241Z,7.16
2019-04-14T17:02:21.035Z,7.13
2019-04-14T17:04:46.807Z,7.01
2019-04-14T17:07:12.630Z,7.01
2019-04-14T17:09:38.508Z,6.95
2019-04-14T17:12:04.299Z,6.87
2019-04-14T17:14:32.002Z,6.79
2019-04-14T17:17:08.718Z,6.73
2019-04-14T17:19:36.442Z,6.60
2019-04-14T17:22:06.918Z,6.59
2019-04-14T17:24:37.543Z,4.91
2019-04-14T17:29:54.945Z,6.58
2019-04-14T17:39:03.516Z,6.48
2019-04-14T17:44:56.213Z,6.37
2019-04-14T17:51:08.397Z,6.30
2019-04-14T17:54:00.894Z,6.23
2019-04-14T17:56:45.744Z,6.20
2019-04-14T18:02:40.395Z,6.17
2019-04-14T18:05:36.378Z,6.18
2019-04-14T18:08:11.155Z,6.17
2019-04-14T18:10:56.947Z,6.12
2019-04-14T18:13:44.354Z,6.10
2019-04-14T18:16:18.836Z,6.11
2019-04-14T18:18:52.318Z,6.11
2019-04-14T18:21:44.354Z,6.08
2019-04-14T18:25:05.302Z,6.04
2019-04-14T18:26:51.243Z,6.05
2019-04-14T18:29:27.865Z,6.02
2019-04-14T18:32:21.527Z,6.01
2019-04-14T18:35:07.261Z,5.97
2019-04-14T18:40:58.682Z,5.66
2019-04-14T18:43:49.346Z,5.97
2019-04-14T18:49:52.849Z,5.90
2019-04-14T18:52:26.959Z,5.90
2019-04-14T18:55:46.796Z,5.91
2019-04-14T18:58:29.327Z,5.86
2019-04-14T19:01:04.898Z,5.87
2019-04-14T19:03:34.630Z,5.91
2019-04-14T19:06:31.665Z,4.32
2019-04-14T19:09:07.687Z,5.88
2019-04-14T19:11:59.761Z,5.90
2019-04-14T19:14:27.535Z,5.83
2019-04-14T19:17:00.290Z,5.86
2019-04-14T19:19:33.049Z,5.07
2019-04-14T19:22:15.104Z,5.69
2019-04-14T19:26:31.587Z,5.73
2019-04-14T19:33:52.234Z,5.68
2019-04-14T19:36:35.092Z,5.63
2019-04-14T19:41:53.536Z,5.50
2019-04-14T19:50:05.468Z,5.36
2019-04-14T19:52:53.263Z,5.33
2019-04-14T19:55:21.026Z,5.28
2019-04-14T19:57:55.512Z,5.29
2019-04-14T20:00:46.203Z,5.32
2019-04-14T20:02:57.495Z,5.26
2019-04-14T20:05:27.847Z,5.34
2019-04-14T20:08:06.705Z,5.33
2019-04-14T20:10:37.453Z,5.41
2019-04-14T20:13:05.334Z,5.44
2019-04-14T20:15:33.376Z,5.31
2019-04-14T20:18:10.050Z,5.49
2019-04-14T20:20:47.292Z,5.46
2019-04-14T20:23:34.825Z,5.44
2019-04-14T20:26:19.167Z,3.98
2019-04-14T20:28:46.857Z,5.44
2019-04-14T20:31:31.445Z,5.48
2019-04-14T20:33:57.305Z,5.47
2019-04-14T20:36:23.104Z,5.42
2019-04-14T20:38:48.901Z,5.43
2019-04-14T20:41:14.678Z,5.40
2019-04-14T20:43:40.576Z,5.46
2019-04-14T20:46:06.367Z,5.41
2019-04-14T20:48:32.145Z,5.37
2019-04-14T20:50:57.936Z,5.32
2019-04-14T20:53:25.218Z,5.38
2019-04-14T20:55:51.217Z,5.36
2019-04-14T20:58:16.997Z,5.39
2019-04-14T21:00:42.793Z,5.35
2019-04-14T21:03:28.319Z,5.38
2019-04-14T21:05:56.038Z,5.39
2019-04-14T21:08:23.731Z,3.34
2019-04-14T21:10:51.540Z,5.33
2019-04-14T21:13:22.001Z,5.34
